sensor_id;sensor_type;location;lat;lon;timestamp;temperature;humidity
67722;SHT31;58309;45.292;11.820;2023-06-19T00:01:11;20.70;89.27
67722;SHT31;58309;45.292;11.820;2023-06-19T00:03:37;20.65;89.33
67722;SHT31;58309;45.292;11.820;2023-06-19T00:06:02;20.60;89.32
67722;SHT31;58309;45.292;11.820;2023-06-19T00:08:28;20.64;89.86
67722;SHT31;58309;45.292;11.820;2023-06-19T00:10:54;20.58;89.82
67722;SHT31;58309;45.292;11.820;2023-06-19T00:13:20;20.55;89.73
67722;SHT31;58309;45.292;11.820;2023-06-19T00:15:45;20.50;89.68
67722;SHT31;58309;45.292;11.820;2023-06-19T00:18:11;20.47;89.81
67722;SHT31;58309;45.292;11.820;2023-06-19T00:20:36;20.46;90.15
67722;SHT31;58309;45.292;11.820;2023-06-19T00:23:02;20.46;90.42
67722;SHT31;58309;45.292;11.820;2023-06-19T00:25:27;20.47;90.52
67722;SHT31;58309;45.292;11.820;2023-06-19T00:27:53;20.46;90.39
67722;SHT31;58309;45.292;11.820;2023-06-19T00:30:18;20.51;90.98
67722;SHT31;58309;45.292;11.820;2023-06-19T00:32:44;20.51;90.86
67722;SHT31;58309;45.292;11.820;2023-06-19T00:35:16;20.55;91.41
67722;SHT31;58309;45.292;11.820;2023-06-19T00:37:43;20.58;91.15
67722;SHT31;58309;45.292;11.820;2023-06-19T00:42:52;20.63;91.28
67722;SHT31;58309;45.292;11.820;2023-06-19T00:45:18;20.63;90.99
67722;SHT31;58309;45.292;11.820;2023-06-19T00:47:44;20.65;91.06
67722;SHT31;58309;45.292;11.820;2023-06-19T00:50:11;20.65;90.90
67722;SHT31;58309;45.292;11.820;2023-06-19T00:52:36;20.65;91.05
67722;SHT31;58309;45.292;11.820;2023-06-19T00:55:03;20.67;90.81
67722;SHT31;58309;45.292;11.820;2023-06-19T00:57:30;20.60;90.81
67722;SHT31;58309;45.292;11.820;2023-06-19T00:59:57;20.57;91.49
67722;SHT31;58309;45.292;11.820;2023-06-19T01:02:22;20.53;91.82
67722;SHT31;58309;45.292;11.820;2023-06-19T01:04:49;20.53;91.69
67722;SHT31;58309;45.292;11.820;2023-06-19T01:07:20;20.47;91.65
67722;SHT31;58309;45.292;11.820;2023-06-19T01:09:52;20.44;91.86
67722;SHT31;58309;45.292;11.820;2023-06-19T01:12:25;20.40;91.96
67722;SHT31;58309;45.292;11.820;2023-06-19T01:14:58;20.32;92.15
67722;SHT31;58309;45.292;11.820;2023-06-19T01:17:26;20.30;92.10
67722;SHT31;58309;45.292;11.820;2023-06-19T01:19:52;20.27;92.40
67722;SHT31;58309;45.292;11.820;2023-06-19T01:24:53;20.23;92.42
67722;SHT31;58309;45.292;11.820;2023-06-19T01:27:19;20.23;92.72
67722;SHT31;58309;45.292;11.820;2023-06-19T01:29:44;20.24;92.56
67722;SHT31;58309;45.292;11.820;2023-06-19T01:32:17;20.26;92.53
67722;SHT31;58309;45.292;11.820;2023-06-19T01:34:46;20.20;92.63
67722;SHT31;58309;45.292;11.820;2023-06-19T01:37:12;20.14;92.57
67722;SHT31;58309;45.292;11.820;2023-06-19T01:39:39;20.10;92.69
67722;SHT31;58309;45.292;11.820;2023-06-19T01:42:06;20.05;92.88
67722;SHT31;58309;45.292;11.820;2023-06-19T01:44:35;20.02;92.95
67722;SHT31;58309;45.292;11.820;2023-06-19T01:47:10;20.00;93.21
67722;SHT31;58309;45.292;11.820;2023-06-19T01:49:36;20.02;93.35
67722;SHT31;58309;45.292;11.820;2023-06-19T01:52:02;20.00;93.27
67722;SHT31;58309;45.292;11.820;2023-06-19T01:54:28;20.00;93.47
67722;SHT31;58309;45.292;11.820;2023-06-19T01:56:53;19.99;93.61
67722;SHT31;58309;45.292;11.820;2023-06-19T01:59:19;20.00;93.61
67722;SHT31;58309;45.292;11.820;2023-06-19T02:01:45;19.99;93.53
67722;SHT31;58309;45.292;11.820;2023-06-19T02:04:10;19.95;93.58
67722;SHT31;58309;45.292;11.820;2023-06-19T02:06:36;19.99;93.63
67722;SHT31;58309;45.292;11.820;2023-06-19T02:09:01;19.96;93.72
67722;SHT31;58309;45.292;11.820;2023-06-19T02:11:27;19.96;93.65
67722;SHT31;58309;45.292;11.820;2023-06-19T02:13:52;20.00;93.62
67722;SHT31;58309;45.292;11.820;2023-06-19T02:16:18;19.99;93.45
67722;SHT31;58309;45.292;11.820;2023-06-19T02:18:43;19.99;93.32
67722;SHT31;58309;45.292;11.820;2023-06-19T02:21:09;19.97;93.34
67722;SHT31;58309;45.292;11.820;2023-06-19T02:23:34;19.99;93.28
67722;SHT31;58309;45.292;11.820;2023-06-19T02:26:00;20.02;93.45
67722;SHT31;58309;45.292;11.820;2023-06-19T02:28:25;20.02;93.25
67722;SHT31;58309;45.292;11.820;2023-06-19T02:30:53;20.03;92.99
67722;SHT31;58309;45.292;11.820;2023-06-19T02:33:19;20.06;93.13
67722;SHT31;58309;45.292;11.820;2023-06-19T02:35:44;20.06;92.83
67722;SHT31;58309;45.292;11.820;2023-06-19T02:38:10;20.09;92.90
67722;SHT31;58309;45.292;11.820;2023-06-19T02:40:38;20.10;92.42
67722;SHT31;58309;45.292;11.820;2023-06-19T02:43:03;20.13;92.56
67722;SHT31;58309;45.292;11.820;2023-06-19T02:45:29;20.22;92.39
67722;SHT31;58309;45.292;11.820;2023-06-19T02:47:54;20.24;92.54
67722;SHT31;58309;45.292;11.820;2023-06-19T02:50:20;20.33;92.38
67722;SHT31;58309;45.292;11.820;2023-06-19T02:52:45;20.36;92.06
67722;SHT31;58309;45.292;11.820;2023-06-19T02:55:11;20.43;92.11
67722;SHT31;58309;45.292;11.820;2023-06-19T02:57:36;20.46;91.70
67722;SHT31;58309;45.292;11.820;2023-06-19T03:00:02;20.50;91.55
67722;SHT31;58309;45.292;11.820;2023-06-19T03:02:28;20.55;91.26
67722;SHT31;58309;45.292;11.820;2023-06-19T03:04:53;20.61;91.10
67722;SHT31;58309;45.292;11.820;2023-06-19T03:07:19;20.61;91.28
67722;SHT31;58309;45.292;11.820;2023-06-19T03:09:44;20.68;91.49
67722;SHT31;58309;45.292;11.820;2023-06-19T03:12:10;20.70;91.07
67722;SHT31;58309;45.292;11.820;2023-06-19T03:14:35;20.71;91.38
67722;SHT31;58309;45.292;11.820;2023-06-19T03:17:01;20.77;91.00
67722;SHT31;58309;45.292;11.820;2023-06-19T03:19:27;20.78;90.76
67722;SHT31;58309;45.292;11.820;2023-06-19T03:21:52;20.81;90.47
67722;SHT31;58309;45.292;11.820;2023-06-19T03:24:17;20.80;90.39
67722;SHT31;58309;45.292;11.820;2023-06-19T03:26:43;20.84;90.69
67722;SHT31;58309;45.292;11.820;2023-06-19T03:29:08;20.81;89.99
67722;SHT31;58309;45.292;11.820;2023-06-19T03:31:34;20.83;90.34
67722;SHT31;58309;45.292;11.820;2023-06-19T03:33:59;20.85;90.03
67722;SHT31;58309;45.292;11.820;2023-06-19T03:36:25;20.83;89.61
67722;SHT31;58309;45.292;11.820;2023-06-19T03:38:53;20.83;89.98
67722;SHT31;58309;45.292;11.820;2023-06-19T03:41:20;20.83;90.01
67722;SHT31;58309;45.292;11.820;2023-06-19T03:43:45;20.83;89.76
67722;SHT31;58309;45.292;11.820;2023-06-19T03:46:11;20.78;89.79
67722;SHT31;58309;45.292;11.820;2023-06-19T03:48:36;20.75;90.12
67722;SHT31;58309;45.292;11.820;2023-06-19T03:51:02;20.71;89.92
67722;SHT31;58309;45.292;11.820;2023-06-19T03:53:27;20.68;89.86
67722;SHT31;58309;45.292;11.820;2023-06-19T03:55:53;20.67;90.13
67722;SHT31;58309;45.292;11.820;2023-06-19T03:58:18;20.60;89.58
67722;SHT31;58309;45.292;11.820;2023-06-19T04:00:44;20.55;90.09
67722;SHT31;58309;45.292;11.820;2023-06-19T04:03:09;20.53;89.93
67722;SHT31;58309;45.292;11.820;2023-06-19T04:05:35;20.50;89.63
67722;SHT31;58309;45.292;11.820;2023-06-19T04:08:00;20.48;89.78
67722;SHT31;58309;45.292;11.820;2023-06-19T04:10:25;20.50;89.95
67722;SHT31;58309;45.292;11.820;2023-06-19T04:12:51;20.51;89.84
67722;SHT31;58309;45.292;11.820;2023-06-19T04:15:16;20.48;89.81
67722;SHT31;58309;45.292;11.820;2023-06-19T04:17:42;20.53;89.67
67722;SHT31;58309;45.292;11.820;2023-06-19T04:20:08;20.53;89.43
67722;SHT31;58309;45.292;11.820;2023-06-19T04:22:40;20.55;89.34
67722;SHT31;58309;45.292;11.820;2023-06-19T04:25:06;20.55;89.51
67722;SHT31;58309;45.292;11.820;2023-06-19T04:27:32;20.55;89.46
67722;SHT31;58309;45.292;11.820;2023-06-19T04:29:58;20.57;89.64
67722;SHT31;58309;45.292;11.820;2023-06-19T04:32:23;20.57;89.79
67722;SHT31;58309;45.292;11.820;2023-06-19T04:34:48;20.61;89.68
67722;SHT31;58309;45.292;11.820;2023-06-19T04:37:14;20.64;89.39
67722;SHT31;58309;45.292;11.820;2023-06-19T04:39:44;20.73;89.17
67722;SHT31;58309;45.292;11.820;2023-06-19T04:42:13;20.85;88.90
67722;SHT31;58309;45.292;11.820;2023-06-19T04:44:47;20.98;88.88
67722;SHT31;58309;45.292;11.820;2023-06-19T04:47:14;21.08;87.72
67722;SHT31;58309;45.292;11.820;2023-06-19T04:49:40;21.22;87.77
67722;SHT31;58309;45.292;11.820;2023-06-19T04:52:06;21.36;86.94
67722;SHT31;58309;45.292;11.820;2023-06-19T04:54:31;21.49;87.38
67722;SHT31;58309;45.292;11.820;2023-06-19T04:57:00;21.53;86.23
67722;SHT31;58309;45.292;11.820;2023-06-19T04:59:26;21.55;86.48
67722;SHT31;58309;45.292;11.820;2023-06-19T05:01:52;21.56;86.00
67722;SHT31;58309;45.292;11.820;2023-06-19T05:04:20;21.66;86.26
67722;SHT31;58309;45.292;11.820;2023-06-19T05:06:45;21.74;85.33
67722;SHT31;58309;45.292;11.820;2023-06-19T05:09:11;21.86;85.50
67722;SHT31;58309;45.292;11.820;2023-06-19T05:11:36;21.98;85.40
67722;SHT31;58309;45.292;11.820;2023-06-19T05:14:02;22.10;84.41
67722;SHT31;58309;45.292;11.820;2023-06-19T05:16:28;22.22;84.31
67722;SHT31;58309;45.292;11.820;2023-06-19T05:18:53;22.31;83.51
67722;SHT31;58309;45.292;11.820;2023-06-19T05:21:19;22.42;83.58
67722;SHT31;58309;45.292;11.820;2023-06-19T05:23:45;22.49;83.27
67722;SHT31;58309;45.292;11.820;2023-06-19T05:26:12;22.62;82.16
67722;SHT31;58309;45.292;11.820;2023-06-19T05:28:40;22.77;81.82
67722;SHT31;58309;45.292;11.820;2023-06-19T05:31:05;22.88;81.49
67722;SHT31;58309;45.292;11.820;2023-06-19T05:33:32;23.00;81.80
67722;SHT31;58309;45.292;11.820;2023-06-19T05:35:57;23.12;80.98
67722;SHT31;58309;45.292;11.820;2023-06-19T05:38:22;23.22;81.30
67722;SHT31;58309;45.292;11.820;2023-06-19T05:40:51;23.39;80.67
67722;SHT31;58309;45.292;11.820;2023-06-19T05:43:17;23.39;81.30
67722;SHT31;58309;45.292;11.820;2023-06-19T05:45:44;23.43;80.98
67722;SHT31;58309;45.292;11.820;2023-06-19T05:48:09;23.54;81.28
67722;SHT31;58309;45.292;11.820;2023-06-19T05:50:35;23.65;79.54
67722;SHT31;58309;45.292;11.820;2023-06-19T05:53:00;23.75;79.91
67722;SHT31;58309;45.292;11.820;2023-06-19T05:55:25;23.73;80.15
67722;SHT31;58309;45.292;11.820;2023-06-19T05:57:53;23.77;80.01
67722;SHT31;58309;45.292;11.820;2023-06-19T06:00:18;23.64;79.73
67722;SHT31;58309;45.292;11.820;2023-06-19T06:02:44;23.55;79.99
67722;SHT31;58309;45.292;11.820;2023-06-19T06:05:10;23.67;79.51
67722;SHT31;58309;45.292;11.820;2023-06-19T06:07:35;23.63;80.20
67722;SHT31;58309;45.292;11.820;2023-06-19T06:10:01;23.70;80.11
67722;SHT31;58309;45.292;11.820;2023-06-19T06:12:26;23.77;78.97
67722;SHT31;58309;45.292;11.820;2023-06-19T06:14:52;23.82;78.51
67722;SHT31;58309;45.292;11.820;2023-06-19T06:17:17;23.71;79.19
67722;SHT31;58309;45.292;11.820;2023-06-19T06:19:43;23.78;79.91
67722;SHT31;58309;45.292;11.820;2023-06-19T06:22:08;23.89;79.29
67722;SHT31;58309;45.292;11.820;2023-06-19T06:24:34;24.00;79.18
67722;SHT31;58309;45.292;11.820;2023-06-19T06:26:59;24.11;79.49
67722;SHT31;58309;45.292;11.820;2023-06-19T06:29:24;24.12;79.76
67722;SHT31;58309;45.292;11.820;2023-06-19T06:31:50;24.32;78.48
67722;SHT31;58309;45.292;11.820;2023-06-19T06:34:18;24.37;77.69
67722;SHT31;58309;45.292;11.820;2023-06-19T06:36:45;24.29;78.56
67722;SHT31;58309;45.292;11.820;2023-06-19T06:39:10;24.42;77.67
67722;SHT31;58309;45.292;11.820;2023-06-19T06:41:36;24.53;76.84
67722;SHT31;58309;45.292;11.820;2023-06-19T06:44:01;24.45;77.70
67722;SHT31;58309;45.292;11.820;2023-06-19T06:46:28;24.56;77.46
67722;SHT31;58309;45.292;11.820;2023-06-19T06:48:54;24.56;76.84
67722;SHT31;58309;45.292;11.820;2023-06-19T06:51:19;24.73;77.43
67722;SHT31;58309;45.292;11.820;2023-06-19T06:53:44;24.70;76.81
67722;SHT31;58309;45.292;11.820;2023-06-19T06:56:10;24.88;76.91
67722;SHT31;58309;45.292;11.820;2023-06-19T06:58:36;24.84;76.44
67722;SHT31;58309;45.292;11.820;2023-06-19T07:01:01;24.91;77.14
67722;SHT31;58309;45.292;11.820;2023-06-19T07:03:27;25.00;76.66
67722;SHT31;58309;45.292;11.820;2023-06-19T07:05:55;25.10;76.74
67722;SHT31;58309;45.292;11.820;2023-06-19T07:08:20;25.20;76.15
67722;SHT31;58309;45.292;11.820;2023-06-19T07:10:46;25.38;76.76
67722;SHT31;58309;45.292;11.820;2023-06-19T07:13:11;25.45;74.80
67722;SHT31;58309;45.292;11.820;2023-06-19T07:15:37;25.68;75.09
67722;SHT31;58309;45.292;11.820;2023-06-19T07:18:02;25.81;73.82
67722;SHT31;58309;45.292;11.820;2023-06-19T07:20:28;25.93;73.54
67722;SHT31;58309;45.292;11.820;2023-06-19T07:22:53;26.13;73.94
67722;SHT31;58309;45.292;11.820;2023-06-19T07:25:19;26.61;71.33
67722;SHT31;58309;45.292;11.820;2023-06-19T07:27:45;26.67;71.51
67722;SHT31;58309;45.292;11.820;2023-06-19T07:30:11;26.98;70.35
67722;SHT31;58309;45.292;11.820;2023-06-19T07:32:37;27.31;68.55
67722;SHT31;58309;45.292;11.820;2023-06-19T07:35:04;27.62;66.81
67722;SHT31;58309;45.292;11.820;2023-06-19T07:37:29;27.53;67.33
67722;SHT31;58309;45.292;11.820;2023-06-19T07:39:55;27.86;66.62
67722;SHT31;58309;45.292;11.820;2023-06-19T07:42:21;28.20;66.01
67722;SHT31;58309;45.292;11.820;2023-06-19T07:44:46;27.90;65.23
67722;SHT31;58309;45.292;11.820;2023-06-19T07:47:12;27.67;64.24
67722;SHT31;58309;45.292;11.820;2023-06-19T07:49:39;27.82;66.36
67722;SHT31;58309;45.292;11.820;2023-06-19T07:52:04;27.89;64.81
67722;SHT31;58309;45.292;11.820;2023-06-19T07:54:30;28.13;63.38
67722;SHT31;58309;45.292;11.820;2023-06-19T07:56:55;27.98;64.23
67722;SHT31;58309;45.292;11.820;2023-06-19T07:59:21;28.04;64.48
67722;SHT31;58309;45.292;11.820;2023-06-19T08:01:46;28.41;62.73
67722;SHT31;58309;45.292;11.820;2023-06-19T08:04:12;28.47;63.29
67722;SHT31;58309;45.292;11.820;2023-06-19T08:06:37;28.42;60.98
67722;SHT31;58309;45.292;11.820;2023-06-19T08:09:03;28.68;60.20
67722;SHT31;58309;45.292;11.820;2023-06-19T08:11:29;29.78;52.78
67722;SHT31;58309;45.292;11.820;2023-06-19T08:13:54;31.03;54.07
67722;SHT31;58309;45.292;11.820;2023-06-19T08:16:20;31.81;51.84
67722;SHT31;58309;45.292;11.820;2023-06-19T08:18:45;32.56;48.76
67722;SHT31;58309;45.292;11.820;2023-06-19T08:21:12;32.98;47.74
67722;SHT31;58309;45.292;11.820;2023-06-19T08:23:37;32.74;49.09
67722;SHT31;58309;45.292;11.820;2023-06-19T08:26:04;32.95;49.33
67722;SHT31;58309;45.292;11.820;2023-06-19T08:28:31;32.92;48.16
67722;SHT31;58309;45.292;11.820;2023-06-19T08:30:57;33.07;49.68
67722;SHT31;58309;45.292;11.820;2023-06-19T08:33:23;34.01;48.81
67722;SHT31;58309;45.292;11.820;2023-06-19T08:35:48;34.43;46.47
67722;SHT31;58309;45.292;11.820;2023-06-19T08:38:14;35.09;45.48
67722;SHT31;58309;45.292;11.820;2023-06-19T08:40:41;35.06;45.91
67722;SHT31;58309;45.292;11.820;2023-06-19T08:43:07;34.44;44.46
67722;SHT31;58309;45.292;11.820;2023-06-19T08:45:33;33.41;46.04
67722;SHT31;58309;45.292;11.820;2023-06-19T08:48:00;33.31;45.06
67722;SHT31;58309;45.292;11.820;2023-06-19T08:50:27;33.36;46.76
67722;SHT31;58309;45.292;11.820;2023-06-19T08:52:54;34.03;44.20
67722;SHT31;58309;45.292;11.820;2023-06-19T08:55:20;34.82;44.80
67722;SHT31;58309;45.292;11.820;2023-06-19T08:57:48;34.64;44.50
67722;SHT31;58309;45.292;11.820;2023-06-19T09:00:23;34.78;44.57
67722;SHT31;58309;45.292;11.820;2023-06-19T09:02:48;34.07;46.27
67722;SHT31;58309;45.292;11.820;2023-06-19T09:05:16;34.43;46.24
67722;SHT31;58309;45.292;11.820;2023-06-19T09:07:43;34.16;45.35
67722;SHT31;58309;45.292;11.820;2023-06-19T09:10:16;34.95;45.26
67722;SHT31;58309;45.292;11.820;2023-06-19T09:13:02;35.54;42.74
67722;SHT31;58309;45.292;11.820;2023-06-19T09:15:32;35.74;42.70
67722;SHT31;58309;45.292;11.820;2023-06-19T09:18:11;35.10;43.45
67722;SHT31;58309;45.292;11.820;2023-06-19T09:20:42;34.77;44.61
67722;SHT31;58309;45.292;11.820;2023-06-19T09:23:13;34.71;44.48
67722;SHT31;58309;45.292;11.820;2023-06-19T09:28:21;35.56;43.60
67722;SHT31;58309;45.292;11.820;2023-06-19T09:30:59;36.34;43.42
67722;SHT31;58309;45.292;11.820;2023-06-19T09:33:26;36.53;43.84
67722;SHT31;58309;45.292;11.820;2023-06-19T09:35:53;36.86;41.49
67722;SHT31;58309;45.292;11.820;2023-06-19T09:38:21;36.95;41.05
67722;SHT31;58309;45.292;11.820;2023-06-19T09:40:50;36.69;41.69
67722;SHT31;58309;45.292;11.820;2023-06-19T09:43:19;36.18;42.50
67722;SHT31;58309;45.292;11.820;2023-06-19T09:45:48;35.53;43.28
67722;SHT31;58309;45.292;11.820;2023-06-19T09:48:15;35.78;44.60
67722;SHT31;58309;45.292;11.820;2023-06-19T09:50:44;36.29;43.74
67722;SHT31;58309;45.292;11.820;2023-06-19T09:53:10;35.70;44.85
67722;SHT31;58309;45.292;11.820;2023-06-19T09:55:37;35.91;43.90
67722;SHT31;58309;45.292;11.820;2023-06-19T09:58:03;36.14;45.25
67722;SHT31;58309;45.292;11.820;2023-06-19T10:00:31;36.56;43.78
67722;SHT31;58309;45.292;11.820;2023-06-19T10:02:57;36.80;44.46
67722;SHT31;58309;45.292;11.820;2023-06-19T10:05:28;36.95;44.51
67722;SHT31;58309;45.292;11.820;2023-06-19T10:07:54;37.06;45.78
67722;SHT31;58309;45.292;11.820;2023-06-19T10:10:26;37.07;44.50
67722;SHT31;58309;45.292;11.820;2023-06-19T10:12:59;36.71;44.48
67722;SHT31;58309;45.292;11.820;2023-06-19T10:15:28;37.19;44.75
67722;SHT31;58309;45.292;11.820;2023-06-19T10:18:05;37.57;45.15
67722;SHT31;58309;45.292;11.820;2023-06-19T10:20:36;37.07;45.40
67722;SHT31;58309;45.292;11.820;2023-06-19T10:23:14;36.76;46.29
67722;SHT31;58309;45.292;11.820;2023-06-19T10:25:43;37.12;45.52
67722;SHT31;58309;45.292;11.820;2023-06-19T10:28:23;37.85;44.77
67722;SHT31;58309;45.292;11.820;2023-06-19T10:31:08;38.39;43.10
67722;SHT31;58309;45.292;11.820;2023-06-19T10:33:35;38.32;44.09
67722;SHT31;58309;45.292;11.820;2023-06-19T10:36:16;38.46;43.57
67722;SHT31;58309;45.292;11.820;2023-06-19T10:38:42;38.37;41.70
67722;SHT31;58309;45.292;11.820;2023-06-19T10:41:20;37.12;43.15
67722;SHT31;58309;45.292;11.820;2023-06-19T10:44:06;36.35;44.86
67722;SHT31;58309;45.292;11.820;2023-06-19T10:46:37;35.23;46.45
67722;SHT31;58309;45.292;11.820;2023-06-19T10:49:04;34.81;47.58
67722;SHT31;58309;45.292;11.820;2023-06-19T10:51:34;34.33;47.21
67722;SHT31;58309;45.292;11.820;2023-06-19T10:53:59;34.30;47.49
67722;SHT31;58309;45.292;11.820;2023-06-19T10:56:25;35.20;47.79
67722;SHT31;58309;45.292;11.820;2023-06-19T10:59:17;35.77;47.23
67722;SHT31;58309;45.292;11.820;2023-06-19T11:01:48;35.96;45.90
67722;SHT31;58309;45.292;11.820;2023-06-19T11:04:15;35.53;46.36
67722;SHT31;58309;45.292;11.820;2023-06-19T11:06:42;35.45;45.32
67722;SHT31;58309;45.292;11.820;2023-06-19T11:09:10;34.65;47.08
67722;SHT31;58309;45.292;11.820;2023-06-19T11:11:40;35.59;45.07
67722;SHT31;58309;45.292;11.820;2023-06-19T11:14:07;35.69;43.00
67722;SHT31;58309;45.292;11.820;2023-06-19T11:16:33;34.75;45.21
67722;SHT31;58309;45.292;11.820;2023-06-19T11:19:00;34.98;45.95
67722;SHT31;58309;45.292;11.820;2023-06-19T11:21:33;35.60;44.73
67722;SHT31;58309;45.292;11.820;2023-06-19T11:24:00;35.43;45.64
67722;SHT31;58309;45.292;11.820;2023-06-19T11:26:26;36.23;42.78
67722;SHT31;58309;45.292;11.820;2023-06-19T11:28:51;36.37;42.95
67722;SHT31;58309;45.292;11.820;2023-06-19T11:31:17;35.69;41.22
67722;SHT31;58309;45.292;11.820;2023-06-19T11:33:42;35.09;41.92
67722;SHT31;58309;45.292;11.820;2023-06-19T11:36:08;35.81;44.50
67722;SHT31;58309;45.292;11.820;2023-06-19T11:38:35;36.46;40.47
67722;SHT31;58309;45.292;11.820;2023-06-19T11:41:02;37.02;38.26
67722;SHT31;58309;45.292;11.820;2023-06-19T11:43:29;37.63;38.02
67722;SHT31;58309;45.292;11.820;2023-06-19T11:46:15;38.66;34.51
67722;SHT31;58309;45.292;11.820;2023-06-19T11:48:41;39.52;32.57
67722;SHT31;58309;45.292;11.820;2023-06-19T11:51:06;38.84;35.76
67722;SHT31;58309;45.292;11.820;2023-06-19T11:53:33;38.40;36.05
67722;SHT31;58309;45.292;11.820;2023-06-19T11:55:58;37.73;38.02
67722;SHT31;58309;45.292;11.820;2023-06-19T11:58:24;38.21;36.20
67722;SHT31;58309;45.292;11.820;2023-06-19T12:00:49;38.55;35.66
67722;SHT31;58309;45.292;11.820;2023-06-19T12:03:15;37.53;36.66
67722;SHT31;58309;45.292;11.820;2023-06-19T12:05:40;37.65;37.78
67722;SHT31;58309;45.292;11.820;2023-06-19T12:08:06;38.19;37.76
67722;SHT31;58309;45.292;11.820;2023-06-19T12:10:33;37.88;36.08
67722;SHT31;58309;45.292;11.820;2023-06-19T12:12:59;36.71;36.18
67722;SHT31;58309;45.292;11.820;2023-06-19T12:15:25;35.90;38.00
67722;SHT31;58309;45.292;11.820;2023-06-19T12:17:51;36.29;39.22
67722;SHT31;58309;45.292;11.820;2023-06-19T12:20:17;36.51;37.79
67722;SHT31;58309;45.292;11.820;2023-06-19T12:22:43;36.87;38.99
67722;SHT31;58309;45.292;11.820;2023-06-19T12:25:09;36.78;37.30
67722;SHT31;58309;45.292;11.820;2023-06-19T12:27:34;36.89;37.64
67722;SHT31;58309;45.292;11.820;2023-06-19T12:30:00;36.51;39.08
67722;SHT31;58309;45.292;11.820;2023-06-19T12:32:25;36.17;37.80
67722;SHT31;58309;45.292;11.820;2023-06-19T12:34:50;35.56;38.77
67722;SHT31;58309;45.292;11.820;2023-06-19T12:37:19;34.94;39.82
67722;SHT31;58309;45.292;11.820;2023-06-19T12:39:46;34.84;42.43
67722;SHT31;58309;45.292;11.820;2023-06-19T12:42:12;34.87;40.80
67722;SHT31;58309;45.292;11.820;2023-06-19T12:44:40;34.69;41.29
67722;SHT31;58309;45.292;11.820;2023-06-19T12:47:06;34.94;40.51
67722;SHT31;58309;45.292;11.820;2023-06-19T12:49:32;34.71;41.79
67722;SHT31;58309;45.292;11.820;2023-06-19T12:51:58;34.45;42.18
67722;SHT31;58309;45.292;11.820;2023-06-19T12:54:23;34.03;42.78
67722;SHT31;58309;45.292;11.820;2023-06-19T12:56:49;33.77;42.88
67722;SHT31;58309;45.292;11.820;2023-06-19T12:59:14;33.33;42.73
67722;SHT31;58309;45.292;11.820;2023-06-19T13:01:40;33.15;42.99
67722;SHT31;58309;45.292;11.820;2023-06-19T13:04:06;33.19;45.59
67722;SHT31;58309;45.292;11.820;2023-06-19T13:06:31;33.09;43.84
67722;SHT31;58309;45.292;11.820;2023-06-19T13:08:57;33.29;43.45
67722;SHT31;58309;45.292;11.820;2023-06-19T13:11:23;33.15;41.97
67722;SHT31;58309;45.292;11.820;2023-06-19T13:13:48;33.01;42.94
67722;SHT31;58309;45.292;11.820;2023-06-19T13:16:13;33.15;43.51
67722;SHT31;58309;45.292;11.820;2023-06-19T13:18:41;33.25;45.01
67722;SHT31;58309;45.292;11.820;2023-06-19T13:21:06;33.42;43.41
67722;SHT31;58309;45.292;11.820;2023-06-19T13:23:32;33.49;41.04
67722;SHT31;58309;45.292;11.820;2023-06-19T13:25:57;33.45;42.08
67722;SHT31;58309;45.292;11.820;2023-06-19T13:28:23;33.59;42.22
67722;SHT31;58309;45.292;11.820;2023-06-19T13:30:49;33.63;42.03
67722;SHT31;58309;45.292;11.820;2023-06-19T13:33:15;33.43;41.89
67722;SHT31;58309;45.292;11.820;2023-06-19T13:35:42;33.42;44.09
67722;SHT31;58309;45.292;11.820;2023-06-19T13:38:08;33.25;42.28
67722;SHT31;58309;45.292;11.820;2023-06-19T13:40:34;33.00;43.26
67722;SHT31;58309;45.292;11.820;2023-06-19T13:43:00;32.92;43.88
67722;SHT31;58309;45.292;11.820;2023-06-19T13:45:27;32.65;42.67
67722;SHT31;58309;45.292;11.820;2023-06-19T13:47:53;32.45;42.84
67722;SHT31;58309;45.292;11.820;2023-06-19T13:50:18;32.43;44.10
67722;SHT31;58309;45.292;11.820;2023-06-19T13:52:45;32.37;45.87
67722;SHT31;58309;45.292;11.820;2023-06-19T13:55:12;32.37;43.22
67722;SHT31;58309;45.292;11.820;2023-06-19T13:57:40;32.56;44.61
67722;SHT31;58309;45.292;11.820;2023-06-19T14:00:06;32.43;43.17
67722;SHT31;58309;45.292;11.820;2023-06-19T14:02:32;32.57;44.40
67722;SHT31;58309;45.292;11.820;2023-06-19T14:04:58;32.70;44.21
67722;SHT31;58309;45.292;11.820;2023-06-19T14:07:23;33.04;43.16
67722;SHT31;58309;45.292;11.820;2023-06-19T14:09:49;33.29;43.12
67722;SHT31;58309;45.292;11.820;2023-06-19T14:12:15;33.14;41.74
67722;SHT31;58309;45.292;11.820;2023-06-19T14:14:40;33.08;42.20
67722;SHT31;58309;45.292;11.820;2023-06-19T14:17:06;33.31;42.35
67722;SHT31;58309;45.292;11.820;2023-06-19T14:19:31;33.53;41.61
67722;SHT31;58309;45.292;11.820;2023-06-19T14:21:56;33.48;41.63
67722;SHT31;58309;45.292;11.820;2023-06-19T14:24:22;33.41;42.57
67722;SHT31;58309;45.292;11.820;2023-06-19T14:26:49;33.74;42.67
67722;SHT31;58309;45.292;11.820;2023-06-19T14:29:15;33.70;42.61
67722;SHT31;58309;45.292;11.820;2023-06-19T14:31:43;33.96;43.22
67722;SHT31;58309;45.292;11.820;2023-06-19T14:34:09;33.79;41.46
67722;SHT31;58309;45.292;11.820;2023-06-19T14:36:37;33.77;42.29
67722;SHT31;58309;45.292;11.820;2023-06-19T14:39:02;33.63;40.21
67722;SHT31;58309;45.292;11.820;2023-06-19T14:41:28;33.69;42.65
67722;SHT31;58309;45.292;11.820;2023-06-19T14:43:53;33.39;41.44
67722;SHT31;58309;45.292;11.820;2023-06-19T14:46:19;33.53;43.37
67722;SHT31;58309;45.292;11.820;2023-06-19T14:48:44;33.72;40.87
67722;SHT31;58309;45.292;11.820;2023-06-19T14:51:10;33.56;41.53
67722;SHT31;58309;45.292;11.820;2023-06-19T14:53:37;33.38;41.98
67722;SHT31;58309;45.292;11.820;2023-06-19T14:56:02;33.08;41.58
67722;SHT31;58309;45.292;11.820;2023-06-19T14:58:28;33.14;41.63
67722;SHT31;58309;45.292;11.820;2023-06-19T15:00:54;33.62;40.55
67722;SHT31;58309;45.292;11.820;2023-06-19T15:03:19;34.65;41.95
67722;SHT31;58309;45.292;11.820;2023-06-19T15:05:45;35.33;40.68
67722;SHT31;58309;45.292;11.820;2023-06-19T15:08:10;35.43;39.78
67722;SHT31;58309;45.292;11.820;2023-06-19T15:10:36;34.87;40.64
67722;SHT31;58309;45.292;11.820;2023-06-19T15:13:02;34.71;41.36
67722;SHT31;58309;45.292;11.820;2023-06-19T15:15:27;34.24;41.57
67722;SHT31;58309;45.292;11.820;2023-06-19T15:17:53;33.48;42.81
67722;SHT31;58309;45.292;11.820;2023-06-19T15:20:18;32.95;43.99